Bloomington, Indiana
Current Conditions -  °F | °C
As of 9:53 PM on Monday 22 Dec 2014 (Local Time) from KBMG Reporting Station
Overcast Overcast  
Wind Chill: 44°   Ceiling: 2100
Heat Index: 48°   Visibility: 10mi
Dew Point: 43°   Wind: 8mph
Humidity: 83%   Direction: 140°SE
Pressure: 29.66"   Gusts: NA
Location:  39.17°N, 86.53°W
Report Text: KBMG 230253Z AUTO 14007KT 10SM OVC021 09/06 A2966 RMK AO2 RAB34E43 SLP045 P0000 60000 T00890061 55012
Loading
Personal Weather Stations






























Interactive Weather Map New forecast layout! Learn more

10-Day Weather Forecast

Advertisements
Track Severe Weather on mobile